createdAt,value
2018-01-11T00:02:00.266Z,99.00
2018-01-11T00:06:43.595Z,99.40
2018-01-11T00:11:26.969Z,99.50
2018-01-11T00:16:10.294Z,99.40
2018-01-11T00:20:54.037Z,99.30
2018-01-11T00:25:37.688Z,99.20
2018-01-11T00:30:20.984Z,98.90
2018-01-11T00:35:05.130Z,98.50
2018-01-11T00:39:48.434Z,98.50
2018-01-11T00:44:31.766Z,98.40
2018-01-11T00:49:15.090Z,98.20
2018-01-11T00:53:58.415Z,98.10
2018-01-11T00:58:41.737Z,98.20
2018-01-11T01:03:25.851Z,99.00
2018-01-11T01:08:09.193Z,99.00
2018-01-11T01:12:52.514Z,99.10
2018-01-11T01:17:35.840Z,98.90
2018-01-11T01:22:19.149Z,98.90
2018-01-11T01:27:03.203Z,98.70
2018-01-11T01:31:47.303Z,98.20
2018-01-11T01:36:30.638Z,98.20
2018-01-11T01:41:13.964Z,98.20
2018-01-11T01:45:57.634Z,98.80
2018-01-11T01:50:40.928Z,98.80
2018-01-11T01:55:25.003Z,99.50
2018-01-11T02:00:08.356Z,99.30
2018-01-11T02:04:51.700Z,99.60
2018-01-11T02:09:35.033Z,99.90
2018-01-11T02:14:18.346Z,99.90
2018-01-11T02:19:01.629Z,99.90
2018-01-11T02:23:44.985Z,99.40
2018-01-11T02:28:28.317Z,99.30
2018-01-11T02:33:11.642Z,99.10
2018-01-11T02:37:54.988Z,98.90
2018-01-11T02:42:38.564Z,98.80
2018-01-11T02:47:21.879Z,99.10
2018-01-11T02:52:05.316Z,99.20
2018-01-11T02:56:48.646Z,99.00
2018-01-11T03:01:31.995Z,99.10
2018-01-11T03:06:15.301Z,99.20
2018-01-11T03:10:58.699Z,99.50
2018-01-11T03:15:41.973Z,99.80
2018-01-11T03:20:26.074Z,99.90
2018-01-11T03:25:09.394Z,99.90
2018-01-11T03:29:52.762Z,99.90
2018-01-11T03:34:36.081Z,99.90
2018-01-11T03:39:19.660Z,99.90
2018-01-11T03:44:02.929Z,99.70
2018-01-11T03:48:46.247Z,98.90
2018-01-11T03:53:29.570Z,99.10
2018-01-11T03:58:12.889Z,99.10
2018-01-11T04:02:56.185Z,99.20
2018-01-11T04:07:39.511Z,98.90
2018-01-11T04:12:22.810Z,98.70
2018-01-11T04:17:06.129Z,98.80
2018-01-11T04:21:49.445Z,99.10
2018-01-11T04:26:32.741Z,99.20
2018-01-11T04:31:16.154Z,98.70
2018-01-11T04:35:59.483Z,98.50
2018-01-11T04:40:42.769Z,98.50
2018-01-11T04:45:26.104Z,98.40
2018-01-11T04:50:09.562Z,98.00
2018-01-11T04:54:52.874Z,98.10
2018-01-11T04:59:36.197Z,98.40
2018-01-11T05:04:19.549Z,98.40
2018-01-11T05:09:02.826Z,98.40
2018-01-11T05:13:46.154Z,98.40
2018-01-11T05:18:29.511Z,98.40
2018-01-11T05:23:12.810Z,98.70
2018-01-11T05:27:56.160Z,98.80
2018-01-11T05:32:39.501Z,98.90
2018-01-11T05:37:22.885Z,98.80
2018-01-11T05:42:06.259Z,98.70
2018-01-11T05:46:50.349Z,98.60
2018-01-11T05:51:33.694Z,98.60
2018-01-11T05:56:17.011Z,98.70
2018-01-11T06:01:00.370Z,98.50
2018-01-11T06:05:43.676Z,98.60
2018-01-11T06:10:26.999Z,98.60
2018-01-11T06:15:11.082Z,98.60
2018-01-11T06:19:54.409Z,98.60
2018-01-11T06:24:37.740Z,98.70
2018-01-11T06:29:22.185Z,98.50
2018-01-11T06:34:05.481Z,98.50
2018-01-11T06:38:48.792Z,98.30
2018-01-11T06:43:32.869Z,98.20
2018-01-11T06:48:16.186Z,98.20
2018-01-11T06:53:00.282Z,98.40
2018-01-11T06:57:43.609Z,98.30
2018-01-11T07:02:26.947Z,98.60
2018-01-11T07:07:10.298Z,98.60
2018-01-11T07:11:53.581Z,98.70
2018-01-11T07:16:36.898Z,98.80
2018-01-11T07:21:20.201Z,99.10
2018-01-11T07:26:03.550Z,99.10
2018-01-11T07:30:46.863Z,99.60
2018-01-11T07:35:31.002Z,99.30
2018-01-11T07:40:14.269Z,99.30
2018-01-11T07:44:57.630Z,99.50
2018-01-11T07:49:40.972Z,99.60
2018-01-11T07:54:24.295Z,99.70
2018-01-11T07:59:07.616Z,99.90
2018-01-11T08:03:51.693Z,99.90
2018-01-11T08:08:35.001Z,99.90
2018-01-11T08:13:18.333Z,99.90
2018-01-11T08:18:01.662Z,99.90
2018-01-11T08:22:44.965Z,99.90
2018-01-11T08:27:28.282Z,99.90
2018-01-11T08:32:12.367Z,99.90
2018-01-11T08:36:55.689Z,99.90
2018-01-11T08:41:39.078Z,99.60
2018-01-11T08:46:22.392Z,99.20
2018-01-11T08:51:05.853Z,98.60
2018-01-11T08:55:49.149Z,98.00
2018-01-11T09:00:32.453Z,97.60
2018-01-11T09:05:15.813Z,97.10
2018-01-11T09:09:59.142Z,96.80
2018-01-11T09:14:43.185Z,96.20
2018-01-11T09:19:26.574Z,95.60
2018-01-11T09:24:09.915Z,95.60
2018-01-11T09:28:53.241Z,94.90
2018-01-11T09:33:36.570Z,93.80
2018-01-11T09:38:20.702Z,93.90
2018-01-11T09:43:04.027Z,93.90
2018-01-11T09:47:47.325Z,92.30
2018-01-11T09:52:30.633Z,91.30
2018-01-11T09:57:13.955Z,91.50
2018-01-11T10:01:57.340Z,91.10
2018-01-11T10:06:41.450Z,90.00
2018-01-11T10:11:24.741Z,90.00
2018-01-11T10:16:08.067Z,90.00
2018-01-11T10:20:52.124Z,90.30
2018-01-11T10:25:36.213Z,90.20
2018-01-11T10:30:19.541Z,90.20
2018-01-11T10:35:02.845Z,91.00
2018-01-11T10:44:26.131Z,91.80
2018-01-11T10:49:09.491Z,92.20
2018-01-11T10:53:52.807Z,92.50
2018-01-11T10:58:36.414Z,92.00
2018-01-11T11:03:19.696Z,92.40
2018-01-11T11:08:03.056Z,91.60
2018-01-11T11:12:46.327Z,91.20
2018-01-11T11:17:29.665Z,91.30
2018-01-11T11:22:13.025Z,91.30
2018-01-11T11:26:56.337Z,91.20
2018-01-11T11:31:39.915Z,90.80
2018-01-11T11:36:23.222Z,90.80
2018-01-11T11:41:06.608Z,91.20
2018-01-11T11:45:50.664Z,91.10
2018-01-11T11:50:34.037Z,91.10
2018-01-11T11:55:17.342Z,91.20
2018-01-11T12:00:00.700Z,91.10
2018-01-11T12:04:44.038Z,91.20
2018-01-11T12:09:27.369Z,91.10
2018-01-11T12:14:10.977Z,91.20
2018-01-11T12:18:54.270Z,90.90
2018-01-11T12:23:37.598Z,91.10
2018-01-11T12:28:20.934Z,91.10
2018-01-11T12:33:04.247Z,91.20
2018-01-11T12:37:47.821Z,91.10
2018-01-11T12:42:31.120Z,91.30
2018-01-11T12:47:14.525Z,91.40
2018-01-11T12:51:57.879Z,91.10
2018-01-11T12:56:42.010Z,91.60
2018-01-11T13:01:25.333Z,91.60
2018-01-11T13:06:08.921Z,91.50
2018-01-11T13:10:53.001Z,91.60
2018-01-11T13:15:37.109Z,91.90
2018-01-11T13:20:20.477Z,91.90
2018-01-11T13:25:03.793Z,91.70
2018-01-11T13:29:47.142Z,91.70
2018-01-11T13:34:30.727Z,91.80
2018-01-11T13:39:14.069Z,91.30
2018-01-11T13:43:58.150Z,91.30
2018-01-11T13:48:42.271Z,91.10
2018-01-11T13:53:26.356Z,91.00
2018-01-11T13:58:09.684Z,91.00
2018-01-11T14:02:53.304Z,91.30
2018-01-11T14:07:37.393Z,90.80
2018-01-11T14:12:21.509Z,91.20
2018-01-11T14:17:04.934Z,91.10
2018-01-11T14:21:48.269Z,91.30
2018-01-11T14:26:31.603Z,91.50
2018-01-11T14:31:15.162Z,91.90
2018-01-11T14:35:58.494Z,92.10
2018-01-11T14:40:41.818Z,92.50
2018-01-11T14:45:25.125Z,93.30
2018-01-11T14:50:08.439Z,93.40
2018-01-11T14:54:51.754Z,93.70
2018-01-11T14:59:35.097Z,94.00
2018-01-11T15:04:18.454Z,94.00
2018-01-11T15:09:01.777Z,94.20
2018-01-11T15:13:45.865Z,95.00
2018-01-11T15:18:29.194Z,95.00
2018-01-11T15:23:12.535Z,95.60
2018-01-11T15:27:56.142Z,96.30
2018-01-11T15:32:39.425Z,96.60
2018-01-11T15:37:23.517Z,97.20
2018-01-11T15:42:06.854Z,96.80
2018-01-11T15:46:50.174Z,97.30
2018-01-11T15:51:34.320Z,97.70
2018-01-11T15:56:18.411Z,98.00
2018-01-11T16:01:02.480Z,98.20
2018-01-11T16:05:45.814Z,98.20
2018-01-11T16:10:29.929Z,98.80
2018-01-11T16:15:14.359Z,98.80
2018-01-11T16:19:57.705Z,99.20
2018-01-11T16:24:41.027Z,99.50
2018-01-11T16:29:24.652Z,99.30
2018-01-11T16:34:08.853Z,99.90
2018-01-11T16:38:52.181Z,99.90
2018-01-11T16:43:35.608Z,99.90
2018-01-11T16:48:19.027Z,99.90
2018-01-11T16:53:02.728Z,99.90
2018-01-11T16:57:46.063Z,99.70
2018-01-11T17:02:29.390Z,99.90
2018-01-11T17:07:12.735Z,99.90
2018-01-11T17:11:56.089Z,99.90
2018-01-11T17:16:39.411Z,99.90
2018-01-11T17:21:22.815Z,99.90
2018-01-11T17:26:07.218Z,99.90
2018-01-11T17:30:50.577Z,99.90
2018-01-11T17:35:34.039Z,99.90
2018-01-11T17:40:17.389Z,99.90
2018-01-11T17:45:00.995Z,99.90
2018-01-11T17:49:44.324Z,99.90
2018-01-11T17:54:27.676Z,99.90
2018-01-11T17:59:11.824Z,99.90
2018-01-11T18:03:55.216Z,99.90
2018-01-11T18:08:38.548Z,99.90
2018-01-11T18:13:21.988Z,99.90
2018-01-11T18:18:05.836Z,99.90
2018-01-11T18:22:49.959Z,99.90
2018-01-11T18:27:33.334Z,99.90
2018-01-11T18:32:16.853Z,99.90
2018-01-11T18:37:01.029Z,99.90
2018-01-11T18:41:44.703Z,99.90
2018-01-11T18:46:28.139Z,99.90
2018-01-11T18:51:11.561Z,99.90
2018-01-11T18:55:54.856Z,99.90
2018-01-11T19:00:39.050Z,99.90
2018-01-11T19:05:22.420Z,99.90
2018-01-11T19:10:05.951Z,99.90
2018-01-11T19:14:50.267Z,99.90
2018-01-11T19:19:33.669Z,99.90
2018-01-11T19:24:17.095Z,99.90
2018-01-11T19:29:00.435Z,99.90
2018-01-11T19:33:43.806Z,99.90
2018-01-11T19:38:27.567Z,99.90
2018-01-11T19:43:10.918Z,99.90
2018-01-11T19:47:54.800Z,99.90
2018-01-11T19:52:38.165Z,99.90
2018-01-11T19:57:21.630Z,99.90
2018-01-11T20:02:05.297Z,99.90
2018-01-11T20:06:49.468Z,99.90
2018-01-11T20:11:33.648Z,99.90
2018-01-11T20:16:16.971Z,99.90
2018-01-11T20:21:01.096Z,99.90
2018-01-11T20:25:44.443Z,99.90
2018-01-11T20:30:28.666Z,99.90
2018-01-11T20:35:11.971Z,99.90
2018-01-11T20:39:55.315Z,99.90
2018-01-11T20:44:38.655Z,99.90
2018-01-11T20:49:22.003Z,99.90
2018-01-11T20:54:05.406Z,99.90
2018-01-11T20:58:48.797Z,99.90
2018-01-11T21:03:32.390Z,99.90
2018-01-11T21:08:15.724Z,99.90
2018-01-11T21:12:59.943Z,99.90
2018-01-11T21:17:44.051Z,99.90
2018-01-11T21:22:28.290Z,99.90
2018-01-11T21:27:11.782Z,99.90
2018-01-11T21:31:55.271Z,99.90
2018-01-11T21:36:38.475Z,99.90
2018-01-11T21:41:21.890Z,99.90
2018-01-11T21:46:05.292Z,99.90
2018-01-11T21:50:48.665Z,99.90
2018-01-11T21:55:31.983Z,99.90
2018-01-11T22:00:15.299Z,99.90
2018-01-11T22:04:58.610Z,99.90
2018-01-11T22:09:42.114Z,99.90
2018-01-11T22:14:25.439Z,99.90
2018-01-11T22:19:08.827Z,99.90
2018-01-11T22:23:52.499Z,99.90
2018-01-11T22:33:28.346Z,99.90
2018-01-11T22:38:11.727Z,99.90
2018-01-11T22:42:55.083Z,99.90
2018-01-11T22:47:38.436Z,99.90
2018-01-11T22:52:22.044Z,99.90
2018-01-11T22:57:05.669Z,99.90
2018-01-11T23:01:49.025Z,99.90
2018-01-11T23:06:32.376Z,99.90
2018-01-11T23:11:21.426Z,99.90
2018-01-11T23:16:05.506Z,99.90
2018-01-11T23:20:48.906Z,99.90
2018-01-11T23:25:33.148Z,99.90
2018-01-11T23:30:16.533Z,99.90
2018-01-11T23:35:00.682Z,99.90
2018-01-11T23:39:43.995Z,99.90
2018-01-11T23:44:27.318Z,99.90
2018-01-11T23:49:10.928Z,99.90
2018-01-11T23:53:54.244Z,99.90
2018-01-11T23:58:37.561Z,99.90
